Terminal Aerodrome Forecast
Issued by NWS

Home | Current Version | Previous Version | Text Only | Print | Product List | Glossary On
Versions: 1 2 3 4 5 6 7 8 9 10 11 12
000
FTAK31 PAFA 281127
TAFAMC
TAF
PAMC 281127Z 2812/2912 VRB03KT P6SM OVC080
     FM282200 VRB04KT P6SM VCSH BKN040 OVC080
     FM290200 VRB04KT 6SM -SHRA BR BKN035 OVC080=

USA.gov is the U.S. government's official web portal to all federal, state and local government web resources and services.